Time;durP1;ratioP1;P1;durP2;ratioP2;P2;SDS_P1;SDS_P2;PMS_P1;PMS_P2;Temp;Humidity;BMP_temperature;BMP_pressure;BME280_temperature;BME280_humidity;BME280_pressure;Samples;Min_cycle;Max_cycle;Signal;HPM_P1;HPM_P2
2023/07/28 00:00:08;;;;;;;;;;;17.40;99.70;;;;;;5095814;28;19908;-66
2023/07/28 00:02:35;;;;;;;;;;;17.60;99.00;;;;;;5111500;28;19939;-66
2023/07/28 00:05:01;;;;;;;;;;;17.80;98.00;;;;;;5115122;28;19908;-66
2023/07/28 00:07:28;;;;;;;;;;;18.00;98.40;;;;;;5115342;28;19942;-66
2023/07/28 00:09:54;;;;;;;;;;;18.10;97.90;;;;;;5115536;28;19912;-66
2023/07/28 00:12:22;;;;;;;;;;;18.40;97.30;;;;;;5115482;28;19908;-67
2023/07/28 00:14:48;;;;;;;;;;;18.50;96.90;;;;;;5114782;28;19912;-65
2023/07/28 00:17:15;;;;;;;;;;;18.60;96.30;;;;;;5115853;28;19916;-66
2023/07/28 00:19:42;;;;;;;;;;;18.70;96.40;;;;;;5097986;28;19918;-66
2023/07/28 00:22:08;;;;;;;;;;;18.80;96.30;;;;;;5106550;28;19911;-66
2023/07/28 00:24:35;;;;;;;;;;;18.90;96.10;;;;;;5115056;28;19918;-67
2023/07/28 00:27:01;;;;;;;;;;;18.90;95.70;;;;;;5114559;28;19911;-65
2023/07/28 00:29:28;;;;;;;;;;;18.90;95.60;;;;;;5095504;28;19909;-65
2023/07/28 00:31:55;;;;;;;;;;;19.00;96.10;;;;;;5094373;28;19915;-66
2023/07/28 00:34:21;;;;;;;;;;;19.00;95.30;;;;;;5094624;28;19908;-66
2023/07/28 00:36:48;;;;;;;;;;;19.00;95.40;;;;;;5097248;28;19967;-66
2023/07/28 00:39:14;;;;;;;;;;;19.10;95.60;;;;;;5115420;28;19908;-66
2023/07/28 00:41:41;;;;;;;;;;;19.20;94.90;;;;;;5107706;28;19912;-65
2023/07/28 00:44:08;;;;;;;;;;;19.30;94.90;;;;;;5094499;28;19924;-65
2023/07/28 00:46:34;;;;;;;;;;;19.40;95.00;;;;;;5098969;28;19907;-66
2023/07/28 00:49:03;;;;;;;;;;;19.60;94.50;;;;;;5114437;28;20379;-66
2023/07/28 00:51:31;;;;;;;;;;;19.60;94.70;;;;;;5094168;28;19941;-67
2023/07/28 00:53:59;;;;;;;;;;;19.70;94.90;;;;;;5093965;28;19912;-67
2023/07/28 00:56:26;;;;;;;;;;;19.80;94.70;;;;;;5093789;28;19916;-67
2023/07/28 00:58:53;;;;;;;;;;;19.80;94.30;;;;;;5094487;28;19943;-67
2023/07/28 01:01:19;;;;;;;;;;;19.80;94.20;;;;;;5095375;28;19908;-66
2023/07/28 01:03:46;;;;;;;;;;;19.60;94.20;;;;;;5114097;28;19912;-66
2023/07/28 01:06:20;;;;;;;;;;;19.70;94.30;;;;;;5114043;28;20280;-67
2023/07/28 01:08:56;;;;;;;;;;;19.70;94.50;;;;;;5114531;28;19915;-66
2023/07/28 01:11:23;;;;;;;;;;;19.70;94.50;;;;;;5095702;28;19915;-66
2023/07/28 01:13:49;;;;;;;;;;;19.70;94.40;;;;;;5094360;28;20280;-66
2023/07/28 01:16:16;;;;;;;;;;;19.70;94.60;;;;;;5110947;28;19923;-66
2023/07/28 01:18:43;;;;;;;;;;;19.70;94.30;;;;;;5114472;28;19935;-66
2023/07/28 01:21:12;;;;;;;;;;;19.80;94.60;;;;;;5104669;28;19912;-66
2023/07/28 01:23:52;;;;;;;;;;;19.90;94.60;;;;;;5114390;28;19912;-66
2023/07/28 01:26:35;;;;;;;;;;;20.00;94.40;;;;;;5093923;28;19914;-66
2023/07/28 01:29:03;;;;;;;;;;;20.10;94.20;;;;;;5104820;28;19922;-64
2023/07/28 01:31:30;;;;;;;;;;;20.30;94.10;;;;;;5092105;28;19914;-65
2023/07/28 01:33:57;;;;;;;;;;;20.30;94.00;;;;;;5094376;28;20038;-66
2023/07/28 01:36:23;;;;;;;;;;;20.50;93.60;;;;;;5113532;28;20014;-67
2023/07/28 01:38:50;;;;;;;;;;;20.50;93.70;;;;;;5112053;28;19912;-66
2023/07/28 01:41:17;;;;;;;;;;;20.70;93.60;;;;;;5111484;28;19916;-67
2023/07/28 01:43:43;;;;;;;;;;;20.80;92.90;;;;;;5099673;28;19938;-67
2023/07/28 01:46:10;;;;;;;;;;;20.90;91.90;;;;;;5107866;28;20364;-65
2023/07/28 01:48:36;;;;;;;;;;;21.00;91.60;;;;;;5109661;28;20310;-66
2023/07/28 01:51:03;;;;;;;;;;;21.10;91.20;;;;;;5112035;28;19966;-65
2023/07/28 01:53:30;;;;;;;;;;;21.10;90.80;;;;;;5113483;28;19915;-66
2023/07/28 01:55:56;;;;;;;;;;;21.20;90.70;;;;;;5113742;28;20363;-67
2023/07/28 01:58:23;;;;;;;;;;;21.30;90.40;;;;;;5093605;28;20282;-64
2023/07/28 02:00:50;;;;;;;;;;;21.40;90.00;;;;;;5113732;28;20344;-66
2023/07/28 02:03:16;;;;;;;;;;;21.50;88.60;;;;;;5104890;27;20296;-66
2023/07/28 02:05:44;;;;;;;;;;;21.60;88.90;;;;;;5118904;27;20359;-66
2023/07/28 02:08:11;;;;;;;;;;;21.70;89.30;;;;;;5098838;28;20016;-66
2023/07/28 02:10:38;;;;;;;;;;;21.70;88.30;;;;;;5094769;28;19908;-67
2023/07/28 02:13:05;;;;;;;;;;;21.80;89.20;;;;;;5124344;27;19908;-67
2023/07/28 02:15:32;;;;;;;;;;;22.00;89.20;;;;;;5123181;27;19908;-66
2023/07/28 02:17:58;;;;;;;;;;;22.00;88.50;;;;;;5112965;28;19920;-68
2023/07/28 02:20:25;;;;;;;;;;;22.00;88.90;;;;;;5112460;28;19912;-66
2023/07/28 02:22:51;;;;;;;;;;;22.00;88.40;;;;;;5097737;28;20312;-66
2023/07/28 02:25:18;;;;;;;;;;;21.90;88.00;;;;;;5092835;28;19908;-66
2023/07/28 02:27:45;;;;;;;;;;;21.90;88.50;;;;;;5112839;28;19919;-67
2023/07/28 02:30:12;;;;;;;;;;;21.70;87.50;;;;;;5112715;28;19908;-66
2023/07/28 02:32:39;;;;;;;;;;;21.70;88.00;;;;;;5098419;28;19980;-67
2023/07/28 02:35:06;;;;;;;;;;;21.80;86.60;;;;;;5091956;28;20324;-67
2023/07/28 02:37:32;;;;;;;;;;;21.80;87.90;;;;;;5092521;28;19916;-68
2023/07/28 02:39:59;;;;;;;;;;;21.90;88.60;;;;;;5092060;28;20306;-68
2023/07/28 02:42:26;;;;;;;;;;;22.00;88.00;;;;;;5097592;28;19960;-67
2023/07/28 02:44:53;;;;;;;;;;;22.10;88.30;;;;;;5111963;28;19951;-67
2023/07/28 02:47:19;;;;;;;;;;;22.30;86.90;;;;;;5111918;28;20324;-66
2023/07/28 02:49:46;;;;;;;;;;;22.30;87.30;;;;;;5112176;28;19928;-66
2023/07/28 02:52:13;;;;;;;;;;;22.50;86.10;;;;;;5103168;28;19923;-67
2023/07/28 02:54:40;;;;;;;;;;;22.70;85.00;;;;;;5092153;28;19961;-65
2023/07/28 02:57:06;;;;;;;;;;;22.90;85.50;;;;;;5094489;28;19924;-67
2023/07/28 02:59:33;;;;;;;;;;;23.00;85.90;;;;;;5111971;28;19946;-67
2023/07/28 03:01:59;;;;;;;;;;;23.20;85.70;;;;;;5111828;28;19907;-66
2023/07/28 03:04:26;;;;;;;;;;;23.40;84.00;;;;;;5111344;28;19907;-67
2023/07/28 03:06:53;;;;;;;;;;;23.70;83.30;;;;;;5112447;28;20049;-68
2023/07/28 03:09:20;;;;;;;;;;;24.20;82.80;;;;;;5111992;28;19907;-66
2023/07/28 03:11:46;;;;;;;;;;;24.60;82.80;;;;;;5106016;28;19909;-65
2023/07/28 03:14:13;;;;;;;;;;;25.50;81.50;;;;;;5109046;28;19915;-66
2023/07/28 03:16:40;;;;;;;;;;;27.30;77.50;;;;;;5112296;28;19911;-67
2023/07/28 03:19:07;;;;;;;;;;;28.10;75.30;;;;;;5111542;28;19916;-66
2023/07/28 03:21:33;;;;;;;;;;;28.40;73.00;;;;;;5108239;28;19931;-68
2023/07/28 03:24:00;;;;;;;;;;;28.40;73.30;;;;;;5104865;28;20242;-67
2023/07/28 03:26:27;;;;;;;;;;;27.90;73.30;;;;;;5111734;28;19908;-66
2023/07/28 03:28:53;;;;;;;;;;;27.60;73.60;;;;;;5111987;28;20011;-68
2023/07/28 03:31:20;;;;;;;;;;;28.30;72.40;;;;;;5109634;28;19987;-68
2023/07/28 03:33:47;;;;;;;;;;;29.00;68.20;;;;;;5111547;28;20351;-66
2023/07/28 03:36:13;;;;;;;;;;;28.40;67.00;;;;;;5111771;28;20369;-67
2023/07/28 03:38:40;;;;;;;;;;;27.50;67.90;;;;;;5111041;28;19912;-67
2023/07/28 03:41:07;;;;;;;;;;;26.70;68.80;;;;;;5092827;28;19915;-67
2023/07/28 03:43:58;;;;;;;;;;;26.40;69.00;;;;;;5090699;28;20288;-66
2023/07/28 03:46:26;;;;;;;;;;;26.50;69.20;;;;;;5102728;28;19947;-67
2023/07/28 03:48:53;;;;;;;;;;;26.50;68.50;;;;;;5110927;28;19911;-66
2023/07/28 03:51:19;;;;;;;;;;;26.40;69.00;;;;;;5108953;28;20034;-67
2023/07/28 03:53:46;;;;;;;;;;;26.00;69.50;;;;;;5091328;28;19918;-67
2023/07/28 03:56:12;;;;;;;;;;;25.50;69.40;;;;;;5100307;28;20409;-67
2023/07/28 03:58:39;;;;;;;;;;;25.10;70.40;;;;;;5111559;28;19937;-67
2023/07/28 04:01:07;;;;;;;;;;;25.10;70.80;;;;;;5111174;28;20307;-67
2023/07/28 04:03:34;;;;;;;;;;;25.30;71.10;;;;;;5097675;28;20395;-66
2023/07/28 04:06:00;;;;;;;;;;;25.50;70.00;;;;;;5112157;28;19915;-68
2023/07/28 04:08:27;;;;;;;;;;;26.60;69.60;;;;;;5111824;28;19908;-67
2023/07/28 04:10:54;;;;;;;;;;;27.30;67.20;;;;;;5111419;28;19908;-66
2023/07/28 04:13:20;;;;;;;;;;;27.20;67.50;;;;;;5110626;28;19908;-67
2023/07/28 04:15:47;;;;;;;;;;;27.60;67.80;;;;;;5111815;28;19961;-66
2023/07/28 04:18:14;;;;;;;;;;;28.10;66.30;;;;;;5106309;28;19912;-66
2023/07/28 04:20:40;;;;;;;;;;;27.80;65.90;;;;;;5111518;28;19908;-65
2023/07/28 04:23:07;;;;;;;;;;;27.00;67.50;;;;;;5110676;28;19908;-67
2023/07/28 04:25:33;;;;;;;;;;;26.40;67.70;;;;;;5111751;28;20482;-67
2023/07/28 04:28:00;;;;;;;;;;;25.90;68.40;;;;;;5111994;28;19908;-66
2023/07/28 04:30:27;;;;;;;;;;;25.70;68.20;;;;;;5112120;28;19960;-66
2023/07/28 04:32:53;;;;;;;;;;;25.90;68.80;;;;;;5106309;28;20253;-67
2023/07/28 04:35:20;;;;;;;;;;;26.10;68.60;;;;;;5112826;28;19953;-67
2023/07/28 04:37:47;;;;;;;;;;;26.30;68.80;;;;;;5114256;28;19929;-67
2023/07/28 04:40:13;;;;;;;;;;;26.70;68.20;;;;;;5115342;28;19908;-65
2023/07/28 04:42:40;;;;;;;;;;;26.80;67.40;;;;;;5114046;28;20386;-67
2023/07/28 04:45:08;;;;;;;;;;;26.80;67.50;;;;;;5114699;28;20310;-68
2023/07/28 04:47:34;;;;;;;;;;;26.40;67.70;;;;;;5114634;28;19993;-67
2023/07/28 04:50:01;;;;;;;;;;;26.30;68.60;;;;;;5115140;28;19999;-67
2023/07/28 04:52:28;;;;;;;;;;;26.30;68.00;;;;;;5111458;28;19912;-67
2023/07/28 04:54:54;;;;;;;;;;;25.90;68.00;;;;;;5114654;28;19984;-68
2023/07/28 04:57:21;;;;;;;;;;;25.60;69.20;;;;;;5114663;28;19916;-67
2023/07/28 04:59:47;;;;;;;;;;;25.30;69.20;;;;;;5113861;28;19907;-66
2023/07/28 05:02:14;;;;;;;;;;;25.20;70.20;;;;;;5105048;28;19912;-68
2023/07/28 05:04:41;;;;;;;;;;;24.90;70.20;;;;;;5095193;28;20356;-69
2023/07/28 05:07:07;;;;;;;;;;;24.70;71.50;;;;;;5098693;28;19911;-68
2023/07/28 05:09:34;;;;;;;;;;;24.60;71.20;;;;;;5114491;28;20318;-68
2023/07/28 05:12:00;;;;;;;;;;;24.40;71.30;;;;;;5107000;28;19908;-66
2023/07/28 05:14:27;;;;;;;;;;;24.20;71.40;;;;;;5093558;28;19947;-67
2023/07/28 05:16:54;;;;;;;;;;;24.00;71.80;;;;;;5094060;28;19931;-68
2023/07/28 05:19:20;;;;;;;;;;;23.90;72.30;;;;;;5075924;28;19908;-67
2023/07/28 05:21:47;;;;;;;;;;;23.90;72.70;;;;;;5092631;28;20241;-66
2023/07/28 05:24:13;;;;;;;;;;;23.90;73.70;;;;;;5091969;28;19912;-67
2023/07/28 05:26:40;;;;;;;;;;;23.70;72.80;;;;;;5093132;28;19954;-68
2023/07/28 05:29:07;;;;;;;;;;;23.60;73.10;;;;;;5093044;28;19908;-67
2023/07/28 05:31:33;;;;;;;;;;;23.60;73.10;;;;;;5074756;28;19908;-66
2023/07/28 05:34:00;;;;;;;;;;;23.60;73.10;;;;;;5093315;28;19912;-66
2023/07/28 05:36:28;;;;;;;;;;;23.60;72.70;;;;;;5093051;28;20327;-67
2023/07/28 05:38:56;;;;;;;;;;;23.60;72.70;;;;;;5094094;28;20380;-66
2023/07/28 05:41:24;;;;;;;;;;;23.60;73.10;;;;;;5113027;28;20284;-68
2023/07/28 05:43:50;;;;;;;;;;;23.50;73.40;;;;;;5113327;28;19952;-67
2023/07/28 05:46:17;;;;;;;;;;;23.50;73.10;;;;;;5112898;28;19912;-68
2023/07/28 05:48:45;;;;;;;;;;;23.50;73.40;;;;;;5112941;28;19958;-67
2023/07/28 05:51:11;;;;;;;;;;;23.40;73.90;;;;;;5112595;28;20017;-68
2023/07/28 05:53:38;;;;;;;;;;;23.40;74.10;;;;;;5106084;28;19943;-67
2023/07/28 05:56:04;;;;;;;;;;;23.10;74.40;;;;;;5112716;28;20414;-65
2023/07/28 05:58:31;;;;;;;;;;;23.00;75.10;;;;;;5113867;28;19908;-67
2023/07/28 06:00:58;;;;;;;;;;;22.80;75.40;;;;;;5113788;28;19912;-67
2023/07/28 06:03:26;;;;;;;;;;;22.70;76.20;;;;;;5094078;28;19915;-67
2023/07/28 06:05:52;;;;;;;;;;;22.50;76.10;;;;;;5092792;28;19916;-66
2023/07/28 06:08:19;;;;;;;;;;;22.40;76.60;;;;;;5093547;28;20292;-67
2023/07/28 06:10:46;;;;;;;;;;;22.30;76.50;;;;;;5092883;28;20340;-67
2023/07/28 06:13:12;;;;;;;;;;;22.20;76.90;;;;;;5108771;28;19947;-68
2023/07/28 06:15:39;;;;;;;;;;;22.20;77.30;;;;;;5112540;28;19911;-68
2023/07/28 06:18:06;;;;;;;;;;;22.00;77.50;;;;;;5112353;28;19919;-67
2023/07/28 06:20:34;;;;;;;;;;;21.90;77.90;;;;;;5113459;28;20014;-66
2023/07/28 06:23:01;;;;;;;;;;;21.70;78.40;;;;;;5109648;28;20372;-68
2023/07/28 06:25:27;;;;;;;;;;;21.70;78.60;;;;;;5111954;28;19915;-68
2023/07/28 06:27:54;;;;;;;;;;;21.60;79.10;;;;;;5112356;28;19934;-67
2023/07/28 06:30:21;;;;;;;;;;;21.50;79.00;;;;;;5112772;28;19961;-65
2023/07/28 06:32:47;;;;;;;;;;;21.40;79.30;;;;;;5109065;28;19907;-68
2023/07/28 06:35:14;;;;;;;;;;;21.30;79.60;;;;;;5112653;28;19950;-65
2023/07/28 06:37:41;;;;;;;;;;;21.30;80.10;;;;;;5111990;28;20453;-66
2023/07/28 06:40:09;;;;;;;;;;;21.10;80.30;;;;;;5109185;28;20371;-66
2023/07/28 06:42:36;;;;;;;;;;;21.10;80.60;;;;;;5111150;28;19972;-65
2023/07/28 06:45:06;;;;;;;;;;;21.00;80.70;;;;;;5111808;28;20360;-66
2023/07/28 06:47:33;;;;;;;;;;;20.90;81.20;;;;;;5110979;28;20307;-67
2023/07/28 06:49:59;;;;;;;;;;;20.80;81.70;;;;;;5112183;28;19966;-67
2023/07/28 06:52:26;;;;;;;;;;;20.80;81.90;;;;;;5109689;28;19968;-67
2023/07/28 06:54:54;;;;;;;;;;;20.80;82.20;;;;;;5109750;28;19923;-67
2023/07/28 06:57:21;;;;;;;;;;;20.70;82.30;;;;;;5110580;28;20032;-66
2023/07/28 06:59:48;;;;;;;;;;;20.60;82.80;;;;;;5112560;28;20413;-68
2023/07/28 07:02:15;;;;;;;;;;;20.50;82.90;;;;;;5112233;28;19912;-66
2023/07/28 07:04:42;;;;;;;;;;;20.50;83.10;;;;;;5109643;28;19908;-67
2023/07/28 07:07:09;;;;;;;;;;;20.40;83.40;;;;;;5101656;28;19912;-66
2023/07/28 07:09:36;;;;;;;;;;;20.40;83.50;;;;;;5108393;28;20007;-65
2023/07/28 07:12:03;;;;;;;;;;;20.30;83.90;;;;;;5109860;28;20280;-66
2023/07/28 07:14:30;;;;;;;;;;;20.30;84.20;;;;;;5093694;28;19908;-66
2023/07/28 07:16:56;;;;;;;;;;;20.20;84.20;;;;;;5111793;28;19934;-67
2023/07/28 07:19:23;;;;;;;;;;;20.10;84.60;;;;;;5111075;28;19908;-67
2023/07/28 07:21:50;;;;;;;;;;;20.10;84.60;;;;;;5104203;28;19912;-67
2023/07/28 07:24:17;;;;;;;;;;;20.00;85.10;;;;;;5106986;28;19912;-66
2023/07/28 07:26:44;;;;;;;;;;;19.90;85.20;;;;;;5112783;28;19908;-67
2023/07/28 07:29:10;;;;;;;;;;;19.90;85.60;;;;;;5109534;28;19916;-67
2023/07/28 07:31:37;;;;;;;;;;;19.80;86.00;;;;;;5093499;28;19912;-67
2023/07/28 07:34:04;;;;;;;;;;;19.80;86.10;;;;;;5091776;28;19915;-66
2023/07/28 07:36:31;;;;;;;;;;;19.70;85.90;;;;;;5091607;28;20307;-66
2023/07/28 07:38:58;;;;;;;;;;;19.70;86.20;;;;;;5091252;28;19995;-66
2023/07/28 07:41:25;;;;;;;;;;;19.60;86.50;;;;;;5092515;28;19915;-66
2023/07/28 07:43:54;;;;;;;;;;;19.60;86.90;;;;;;5074190;28;19927;-66
2023/07/28 07:46:21;;;;;;;;;;;19.50;87.00;;;;;;5090360;28;20315;-66
2023/07/28 07:48:48;;;;;;;;;;;19.50;87.30;;;;;;5090349;28;19915;-67
2023/07/28 07:51:15;;;;;;;;;;;19.40;87.40;;;;;;5104945;28;19998;-68
2023/07/28 07:53:41;;;;;;;;;;;19.40;87.60;;;;;;5112004;28;20283;-67
2023/07/28 07:56:08;;;;;;;;;;;19.30;87.90;;;;;;5102771;28;20368;-68
2023/07/28 07:58:35;;;;;;;;;;;19.20;88.10;;;;;;5091543;28;20008;-67
2023/07/28 08:01:01;;;;;;;;;;;19.10;89.10;;;;;;5092227;28;19961;-66
2023/07/28 08:03:28;;;;;;;;;;;19.00;88.90;;;;;;5092385;28;19915;-68
2023/07/28 08:05:55;;;;;;;;;;;19.00;89.40;;;;;;5092547;28;19950;-67
2023/07/28 08:08:22;;;;;;;;;;;18.90;89.90;;;;;;5098247;28;19919;-67
2023/07/28 08:10:49;;;;;;;;;;;18.80;90.10;;;;;;5114237;28;19919;-67
2023/07/28 08:13:15;;;;;;;;;;;18.70;90.60;;;;;;5096980;28;20045;-67
2023/07/28 08:15:45;;;;;;;;;;;18.60;90.50;;;;;;5095870;28;20045;-68
2023/07/28 08:18:13;;;;;;;;;;;18.50;90.60;;;;;;5095895;28;19926;-68
2023/07/28 08:20:39;;;;;;;;;;;18.40;90.80;;;;;;5095720;28;20036;-67
2023/07/28 08:23:06;;;;;;;;;;;18.40;90.90;;;;;;5095377;28;19912;-67
2023/07/28 08:25:34;;;;;;;;;;;18.30;91.40;;;;;;5095626;28;19912;-68
2023/07/28 08:28:01;;;;;;;;;;;18.20;91.70;;;;;;5077345;28;19930;-67
2023/07/28 08:30:27;;;;;;;;;;;18.20;92.10;;;;;;5095636;28;19908;-66
2023/07/28 08:32:54;;;;;;;;;;;18.10;92.50;;;;;;5095235;28;19912;-67
2023/07/28 08:35:21;;;;;;;;;;;17.90;92.80;;;;;;5095757;28;19908;-67
2023/07/28 08:37:47;;;;;;;;;;;17.90;93.00;;;;;;5095572;28;20312;-67
2023/07/28 08:40:14;;;;;;;;;;;17.80;93.20;;;;;;5095711;28;19908;-66
2023/07/28 08:42:41;;;;;;;;;;;17.70;93.40;;;;;;5095403;28;19912;-67
2023/07/28 08:45:08;;;;;;;;;;;17.60;93.70;;;;;;5096294;28;20019;-67
2023/07/28 08:47:35;;;;;;;;;;;17.50;94.00;;;;;;5095375;28;19964;-65
2023/07/28 08:50:03;;;;;;;;;;;17.40;94.40;;;;;;5113812;28;19969;-66
2023/07/28 08:52:30;;;;;;;;;;;17.30;94.60;;;;;;5097352;28;19908;-66
2023/07/28 08:54:56;;;;;;;;;;;17.20;94.90;;;;;;5115829;28;19953;-67
2023/07/28 08:57:23;;;;;;;;;;;17.20;95.10;;;;;;5115716;28;19926;-66
2023/07/28 08:59:50;;;;;;;;;;;17.20;95.40;;;;;;5115553;28;19914;-66
2023/07/28 09:02:18;;;;;;;;;;;17.20;95.60;;;;;;5114831;28;20257;-66
2023/07/28 09:04:45;;;;;;;;;;;17.20;95.50;;;;;;5115551;28;19916;-67
2023/07/28 09:07:12;;;;;;;;;;;17.20;95.90;;;;;;5115736;28;19911;-67
2023/07/28 09:09:43;;;;;;;;;;;17.10;96.10;;;;;;5115560;28;19908;-68
2023/07/28 09:12:09;;;;;;;;;;;17.10;96.40;;;;;;5112909;28;19918;-67
2023/07/28 09:14:37;;;;;;;;;;;17.00;96.60;;;;;;5114574;28;20361;-67
2023/07/28 09:17:11;;;;;;;;;;;17.00;96.70;;;;;;5114999;28;19912;-67
2023/07/28 09:19:51;;;;;;;;;;;16.90;96.60;;;;;;5115154;28;20003;-67
2023/07/28 09:22:19;;;;;;;;;;;16.90;96.50;;;;;;5113746;28;19933;-67
2023/07/28 09:24:46;;;;;;;;;;;16.90;96.40;;;;;;5106573;28;19933;-65
2023/07/28 09:27:24;;;;;;;;;;;16.90;96.50;;;;;;5076561;28;20272;-66
2023/07/28 09:29:51;;;;;;;;;;;16.90;96.50;;;;;;5077973;28;19998;-67
2023/07/28 09:32:28;;;;;;;;;;;17.00;96.40;;;;;;5094041;28;19912;-67
2023/07/28 09:35:13;;;;;;;;;;;17.00;96.50;;;;;;5094612;28;19976;-66
2023/07/28 09:37:42;;;;;;;;;;;17.00;96.40;;;;;;5094345;28;19917;-66
2023/07/28 09:40:13;;;;;;;;;;;17.00;96.30;;;;;;5094306;28;19965;-66
2023/07/28 09:42:44;;;;;;;;;;;17.10;96.20;;;;;;5095146;28;19919;-66
2023/07/28 09:45:11;;;;;;;;;;;17.10;96.10;;;;;;5095303;28;19997;-65
2023/07/28 09:47:38;;;;;;;;;;;17.10;95.90;;;;;;5094237;28;19959;-66
2023/07/28 09:50:06;;;;;;;;;;;17.20;95.90;;;;;;5094147;28;19915;-66
2023/07/28 09:52:38;;;;;;;;;;;17.20;95.90;;;;;;5094210;28;19919;-67
2023/07/28 09:55:08;;;;;;;;;;;17.20;95.80;;;;;;5094332;28;19953;-66
2023/07/28 09:57:45;;;;;;;;;;;17.20;95.80;;;;;;5094014;28;19985;-67
2023/07/28 10:00:13;;;;;;;;;;;17.20;95.80;;;;;;5110979;28;19915;-66
2023/07/28 10:02:40;;;;;;;;;;;17.20;95.90;;;;;;5114354;28;19919;-67
2023/07/28 10:05:07;;;;;;;;;;;17.30;95.90;;;;;;5096103;28;19908;-67
2023/07/28 10:07:35;;;;;;;;;;;17.30;95.80;;;;;;5112567;28;19907;-66
2023/07/28 10:10:04;;;;;;;;;;;17.30;95.70;;;;;;5113680;28;19981;-66
2023/07/28 10:12:30;;;;;;;;;;;17.30;95.60;;;;;;5114128;28;19908;-66
2023/07/28 10:15:05;;;;;;;;;;;17.30;95.50;;;;;;5114281;28;19908;-66
2023/07/28 10:17:35;;;;;;;;;;;17.40;95.30;;;;;;5114023;28;20284;-66
2023/07/28 10:20:08;;;;;;;;;;;17.40;95.30;;;;;;5114169;28;19912;-66
2023/07/28 10:22:45;;;;;;;;;;;17.30;95.50;;;;;;5114028;28;20268;-66
2023/07/28 10:25:11;;;;;;;;;;;17.30;95.70;;;;;;5113773;28;19908;-67
2023/07/28 10:27:39;;;;;;;;;;;17.30;95.80;;;;;;5113912;28;19908;-67
2023/07/28 10:30:11;;;;;;;;;;;17.30;95.80;;;;;;5113337;28;20002;-66
2023/07/28 10:32:42;;;;;;;;;;;17.30;95.70;;;;;;5113263;28;19912;-66
2023/07/28 10:35:24;;;;;;;;;;;17.20;95.80;;;;;;5113516;28;19961;-66
2023/07/28 10:37:51;;;;;;;;;;;17.20;96.10;;;;;;5113777;28;19965;-65
2023/07/28 10:40:38;;;;;;;;;;;17.20;96.40;;;;;;5113449;28;19908;-65
2023/07/28 10:43:07;;;;;;;;;;;17.20;96.70;;;;;;5113353;28;20356;-67
2023/07/28 10:45:33;;;;;;;;;;;17.10;96.90;;;;;;5113583;28;20372;-68
2023/07/28 10:48:00;;;;;;;;;;;17.10;97.00;;;;;;5112503;28;19915;-66
2023/07/28 10:50:31;;;;;;;;;;;17.00;97.20;;;;;;5092877;28;19997;-66
2023/07/28 10:52:58;;;;;;;;;;;17.10;97.30;;;;;;5093040;28;19908;-65
2023/07/28 10:55:27;;;;;;;;;;;17.00;97.20;;;;;;5092991;28;19931;-65
2023/07/28 10:57:55;;;;;;;;;;;17.00;97.20;;;;;;5093037;28;20365;-66
2023/07/28 11:00:22;;;;;;;;;;;16.90;97.60;;;;;;5093247;28;20380;-66
2023/07/28 11:02:50;;;;;;;;;;;16.90;97.80;;;;;;5093027;28;19957;-66
2023/07/28 11:05:30;;;;;;;;;;;16.90;98.00;;;;;;5093114;28;20002;-65
2023/07/28 11:08:00;;;;;;;;;;;16.90;98.30;;;;;;5093439;28;20345;-66
2023/07/28 11:10:31;;;;;;;;;;;16.80;98.30;;;;;;5092670;28;19912;-67
2023/07/28 11:12:59;;;;;;;;;;;16.90;98.50;;;;;;5092884;28;19908;-67
2023/07/28 11:15:25;;;;;;;;;;;16.80;98.70;;;;;;5093092;28;19940;-66
2023/07/28 11:17:52;;;;;;;;;;;16.80;98.60;;;;;;5093619;28;19966;-67
2023/07/28 11:20:26;;;;;;;;;;;16.70;98.70;;;;;;5092819;28;20003;-66
2023/07/28 11:22:52;;;;;;;;;;;16.70;98.70;;;;;;5092741;28;20309;-67
2023/07/28 11:25:20;;;;;;;;;;;16.70;98.70;;;;;;5074590;28;19912;-66
2023/07/28 11:27:48;;;;;;;;;;;16.60;98.40;;;;;;5092806;28;19908;-66
2023/07/28 11:30:15;;;;;;;;;;;16.70;98.20;;;;;;5092779;28;20271;-66
2023/07/28 11:32:46;;;;;;;;;;;16.70;98.00;;;;;;5093009;28;20065;-67
2023/07/28 11:35:14;;;;;;;;;;;16.60;98.20;;;;;;5093003;28;19908;-67
2023/07/28 11:37:42;;;;;;;;;;;16.70;98.40;;;;;;5092599;28;20036;-66
2023/07/28 11:40:12;;;;;;;;;;;16.70;98.00;;;;;;5092901;28;20003;-65
2023/07/28 11:42:39;;;;;;;;;;;16.60;98.00;;;;;;5092480;28;20325;-64
2023/07/28 11:45:06;;;;;;;;;;;16.70;98.00;;;;;;5093451;28;20011;-66
2023/07/28 11:47:33;;;;;;;;;;;16.70;97.50;;;;;;5096814;28;20351;-66
2023/07/28 11:50:00;;;;;;;;;;;16.80;97.20;;;;;;5096988;28;19908;-66
2023/07/28 11:52:36;;;;;;;;;;;16.70;97.00;;;;;;5096761;28;20378;-66
2023/07/28 11:55:06;;;;;;;;;;;16.70;96.80;;;;;;5096469;28;19982;-66
2023/07/28 11:57:33;;;;;;;;;;;16.80;96.60;;;;;;5096293;28;19923;-65
2023/07/28 12:00:00;;;;;;;;;;;16.90;96.30;;;;;;5096367;28;19950;-66
2023/07/28 12:02:27;;;;;;;;;;;16.90;96.40;;;;;;5096388;28;19934;-64
2023/07/28 12:04:54;;;;;;;;;;;16.90;96.30;;;;;;5096571;28;19908;-67
2023/07/28 12:07:35;;;;;;;;;;;16.90;96.20;;;;;;5096080;28;19908;-66
2023/07/28 12:10:06;;;;;;;;;;;17.00;96.10;;;;;;5096349;28;19912;-67
2023/07/28 12:12:39;;;;;;;;;;;17.00;96.10;;;;;;5095972;28;20349;-67
2023/07/28 12:15:30;;;;;;;;;;;17.00;96.00;;;;;;5095999;28;19908;-66
2023/07/28 12:18:02;;;;;;;;;;;17.00;96.00;;;;;;5095881;28;19927;-66
2023/07/28 12:20:33;;;;;;;;;;;17.00;96.00;;;;;;5095895;28;19958;-66
2023/07/28 12:22:59;;;;;;;;;;;17.00;96.10;;;;;;5096118;28;19999;-67
2023/07/28 12:25:26;;;;;;;;;;;17.00;96.10;;;;;;5096041;28;19996;-68
2023/07/28 12:27:53;;;;;;;;;;;16.90;96.10;;;;;;5095667;28;19912;-66
2023/07/28 12:30:19;;;;;;;;;;;17.00;96.30;;;;;;5095856;28;19988;-67
2023/07/28 12:32:46;;;;;;;;;;;16.90;96.20;;;;;;5095652;28;20353;-66
2023/07/28 12:35:13;;;;;;;;;;;16.90;96.20;;;;;;5061073;28;19919;-67
2023/07/28 12:37:40;;;;;;;;;;;16.80;96.30;;;;;;5095717;28;19916;-67
2023/07/28 12:40:06;;;;;;;;;;;16.80;96.50;;;;;;5095451;28;19908;-66
2023/07/28 12:42:33;;;;;;;;;;;16.80;96.40;;;;;;5095248;28;20050;-66
2023/07/28 12:45:00;;;;;;;;;;;16.80;96.40;;;;;;5095711;28;19962;-66
2023/07/28 12:47:27;;;;;;;;;;;16.80;96.50;;;;;;5095758;28;20364;-66
2023/07/28 12:49:54;;;;;;;;;;;16.70;96.30;;;;;;5095540;28;19957;-66
2023/07/28 12:52:21;;;;;;;;;;;16.80;96.40;;;;;;5101731;28;19938;-67
2023/07/28 12:54:47;;;;;;;;;;;16.70;96.40;;;;;;5101275;28;19912;-67
2023/07/28 12:57:14;;;;;;;;;;;16.80;96.30;;;;;;5076866;28;19916;-66
2023/07/28 12:59:41;;;;;;;;;;;16.80;96.30;;;;;;5095482;28;19912;-66
2023/07/28 13:02:07;;;;;;;;;;;16.80;96.40;;;;;;5095265;28;19953;-66
2023/07/28 13:04:34;;;;;;;;;;;16.70;96.40;;;;;;5095254;28;19908;-66
2023/07/28 13:07:00;;;;;;;;;;;16.70;96.40;;;;;;5095406;28;19985;-65
2023/07/28 13:09:28;;;;;;;;;;;16.70;96.40;;;;;;5095119;28;19935;-66
2023/07/28 13:11:55;;;;;;;;;;;16.70;96.50;;;;;;5095104;28;19959;-66
2023/07/28 13:14:21;;;;;;;;;;;16.70;96.50;;;;;;5077178;28;19916;-67
2023/07/28 13:16:49;;;;;;;;;;;16.70;96.60;;;;;;5095059;28;19912;-66
2023/07/28 13:19:16;;;;;;;;;;;16.70;96.60;;;;;;5095092;28;19911;-67
2023/07/28 13:21:42;;;;;;;;;;;16.70;96.50;;;;;;5095725;28;20176;-66
2023/07/28 13:24:09;;;;;;;;;;;16.60;96.60;;;;;;5094956;28;19916;-66
2023/07/28 13:26:35;;;;;;;;;;;16.60;96.70;;;;;;5094892;28;20132;-67
2023/07/28 13:29:02;;;;;;;;;;;16.60;96.80;;;;;;5094747;28;19913;-65
2023/07/28 13:31:29;;;;;;;;;;;16.50;96.80;;;;;;5094865;28;19912;-66
2023/07/28 13:33:55;;;;;;;;;;;16.60;96.90;;;;;;5094822;28;20467;-66
2023/07/28 13:36:22;;;;;;;;;;;16.60;97.00;;;;;;5095225;28;20322;-66
2023/07/28 13:38:49;;;;;;;;;;;16.50;96.90;;;;;;5094602;28;20284;-66
2023/07/28 13:41:16;;;;;;;;;;;16.50;96.90;;;;;;5094579;28;19930;-66
2023/07/28 13:43:42;;;;;;;;;;;16.50;97.00;;;;;;5094371;28;19920;-66
2023/07/28 13:46:09;;;;;;;;;;;16.50;97.10;;;;;;5094447;28;19912;-67
2023/07/28 13:48:36;;;;;;;;;;;16.40;97.10;;;;;;5094361;28;19999;-67
2023/07/28 13:51:02;;;;;;;;;;;16.40;97.30;;;;;;5094659;28;19912;-66
2023/07/28 13:53:29;;;;;;;;;;;16.40;97.50;;;;;;5094168;28;19970;-67
2023/07/28 13:55:56;;;;;;;;;;;16.30;97.50;;;;;;5094381;28;19961;-68
2023/07/28 13:58:23;;;;;;;;;;;16.30;97.50;;;;;;5094432;28;19964;-67
2023/07/28 14:00:49;;;;;;;;;;;16.30;97.70;;;;;;5094235;28;19949;-66
2023/07/28 14:03:16;;;;;;;;;;;16.30;97.70;;;;;;5094070;28;19909;-68
2023/07/28 14:05:43;;;;;;;;;;;16.30;98.30;;;;;;5094015;28;19955;-67
2023/07/28 14:08:09;;;;;;;;;;;16.30;98.60;;;;;;5093222;28;19912;-67
2023/07/28 14:10:38;;;;;;;;;;;16.20;98.90;;;;;;5093848;28;19931;-67
2023/07/28 14:13:04;;;;;;;;;;;16.20;99.20;;;;;;5094040;28;19909;-65
2023/07/28 14:15:31;;;;;;;;;;;16.20;99.10;;;;;;5094137;28;19919;-67
2023/07/28 14:17:58;;;;;;;;;;;16.10;99.30;;;;;;5093926;28;19920;-66